sensor_id;sensor_type;location;lat;lon;timestamp;temperature;humidity
63017;DHT22;50274;45.640;11.756;2022-11-11T00:01:03;11.50;76.90
63017;DHT22;50274;45.640;11.756;2022-11-11T00:03:30;11.50;76.90
63017;DHT22;50274;45.640;11.756;2022-11-11T00:06:04;11.50;76.90
63017;DHT22;50274;45.640;11.756;2022-11-11T00:08:30;11.50;76.80
63017;DHT22;50274;45.640;11.756;2022-11-11T00:11:04;11.50;76.80
63017;DHT22;50274;45.640;11.756;2022-11-11T00:13:30;11.50;76.80
63017;DHT22;50274;45.640;11.756;2022-11-11T00:16:20;11.50;76.80
63017;DHT22;50274;45.640;11.756;2022-11-11T00:18:46;11.40;76.80
63017;DHT22;50274;45.640;11.756;2022-11-11T00:21:31;11.40;76.70
63017;DHT22;50274;45.640;11.756;2022-11-11T00:24:27;11.40;76.70
63017;DHT22;50274;45.640;11.756;2022-11-11T00:27:12;11.30;76.70
63017;DHT22;50274;45.640;11.756;2022-11-11T00:29:38;11.30;76.70
63017;DHT22;50274;45.640;11.756;2022-11-11T00:32:07;11.30;76.70
63017;DHT22;50274;45.640;11.756;2022-11-11T00:34:54;11.30;76.80
63017;DHT22;50274;45.640;11.756;2022-11-11T00:37:39;11.20;76.90
63017;DHT22;50274;45.640;11.756;2022-11-11T00:40:06;11.10;77.00
63017;DHT22;50274;45.640;11.756;2022-11-11T00:42:32;11.10;77.20
63017;DHT22;50274;45.640;11.756;2022-11-11T00:44:58;11.00;77.20
63017;DHT22;50274;45.640;11.756;2022-11-11T00:47:24;11.10;77.30
63017;DHT22;50274;45.640;11.756;2022-11-11T00:50:17;11.00;77.40
63017;DHT22;50274;45.640;11.756;2022-11-11T00:53:05;11.00;77.50
63017;DHT22;50274;45.640;11.756;2022-11-11T00:55:32;11.00;77.60
63017;DHT22;50274;45.640;11.756;2022-11-11T00:57:58;11.00;77.60
63017;DHT22;50274;45.640;11.756;2022-11-11T01:00:24;11.00;77.70
63017;DHT22;50274;45.640;11.756;2022-11-11T01:02:49;11.00;77.60
63017;DHT22;50274;45.640;11.756;2022-11-11T01:05:15;11.00;77.50
63017;DHT22;50274;45.640;11.756;2022-11-11T01:07:42;10.90;77.60
63017;DHT22;50274;45.640;11.756;2022-11-11T01:10:08;10.90;77.70
63017;DHT22;50274;45.640;11.756;2022-11-11T01:12:34;10.90;77.70
63017;DHT22;50274;45.640;11.756;2022-11-11T01:14:59;10.90;77.70
63017;DHT22;50274;45.640;11.756;2022-11-11T01:17:25;10.90;77.70
63017;DHT22;50274;45.640;11.756;2022-11-11T01:19:51;10.90;77.80
63017;DHT22;50274;45.640;11.756;2022-11-11T01:22:17;10.90;77.80
63017;DHT22;50274;45.640;11.756;2022-11-11T01:24:42;11.00;77.70
63017;DHT22;50274;45.640;11.756;2022-11-11T01:27:10;10.90;77.70
63017;DHT22;50274;45.640;11.756;2022-11-11T01:29:36;11.00;77.70
63017;DHT22;50274;45.640;11.756;2022-11-11T01:32:02;11.00;77.70
63017;DHT22;50274;45.640;11.756;2022-11-11T01:34:27;11.00;77.70
63017;DHT22;50274;45.640;11.756;2022-11-11T01:36:53;10.90;77.70
63017;DHT22;50274;45.640;11.756;2022-11-11T01:39:19;10.90;77.70
63017;DHT22;50274;45.640;11.756;2022-11-11T01:41:45;10.80;77.80
63017;DHT22;50274;45.640;11.756;2022-11-11T01:46:49;10.70;78.00
63017;DHT22;50274;45.640;11.756;2022-11-11T01:49:35;10.80;78.10
63017;DHT22;50274;45.640;11.756;2022-11-11T01:52:13;10.70;78.10
63017;DHT22;50274;45.640;11.756;2022-11-11T01:54:49;10.70;78.20
63017;DHT22;50274;45.640;11.756;2022-11-11T01:57:26;10.70;78.30
63017;DHT22;50274;45.640;11.756;2022-11-11T01:59:59;10.70;78.30
63017;DHT22;50274;45.640;11.756;2022-11-11T02:02:37;10.70;78.40
63017;DHT22;50274;45.640;11.756;2022-11-11T02:05:05;10.70;78.40
63017;DHT22;50274;45.640;11.756;2022-11-11T02:07:50;10.70;78.40
63017;DHT22;50274;45.640;11.756;2022-11-11T02:10:21;10.70;78.40
63017;DHT22;50274;45.640;11.756;2022-11-11T02:12:50;10.70;78.40
63017;DHT22;50274;45.640;11.756;2022-11-11T02:15:35;10.60;78.40
63017;DHT22;50274;45.640;11.756;2022-11-11T02:18:01;10.70;78.50
63017;DHT22;50274;45.640;11.756;2022-11-11T02:20:31;10.60;78.40
63017;DHT22;50274;45.640;11.756;2022-11-11T02:23:23;10.60;78.50
63017;DHT22;50274;45.640;11.756;2022-11-11T02:25:51;10.70;78.50
63017;DHT22;50274;45.640;11.756;2022-11-11T02:28:19;10.60;78.50
63017;DHT22;50274;45.640;11.756;2022-11-11T02:30:46;10.60;78.40
63017;DHT22;50274;45.640;11.756;2022-11-11T02:33:12;10.60;78.40
63017;DHT22;50274;45.640;11.756;2022-11-11T02:35:44;10.60;78.40
63017;DHT22;50274;45.640;11.756;2022-11-11T02:38:10;10.60;78.40
63017;DHT22;50274;45.640;11.756;2022-11-11T02:40:39;10.60;78.40
63017;DHT22;50274;45.640;11.756;2022-11-11T02:43:29;10.60;78.40
63017;DHT22;50274;45.640;11.756;2022-11-11T02:45:56;10.60;78.40
63017;DHT22;50274;45.640;11.756;2022-11-11T02:48:23;10.60;78.30
63017;DHT22;50274;45.640;11.756;2022-11-11T02:50:49;10.60;78.30
63017;DHT22;50274;45.640;11.756;2022-11-11T02:53:15;10.60;78.30
63017;DHT22;50274;45.640;11.756;2022-11-11T02:55:41;10.50;78.40
63017;DHT22;50274;45.640;11.756;2022-11-11T02:58:07;10.50;78.40
63017;DHT22;50274;45.640;11.756;2022-11-11T03:00:33;10.50;78.50
63017;DHT22;50274;45.640;11.756;2022-11-11T03:02:59;10.50;78.40
63017;DHT22;50274;45.640;11.756;2022-11-11T03:05:25;10.50;78.30
63017;DHT22;50274;45.640;11.756;2022-11-11T03:07:51;10.50;78.30
63017;DHT22;50274;45.640;11.756;2022-11-11T03:10:17;10.50;78.30
63017;DHT22;50274;45.640;11.756;2022-11-11T03:12:42;10.50;78.30
63017;DHT22;50274;45.640;11.756;2022-11-11T03:15:09;10.50;78.30
63017;DHT22;50274;45.640;11.756;2022-11-11T03:17:35;10.50;78.20
63017;DHT22;50274;45.640;11.756;2022-11-11T03:20:08;10.50;78.20
63017;DHT22;50274;45.640;11.756;2022-11-11T03:25:25;10.50;78.10
63017;DHT22;50274;45.640;11.756;2022-11-11T03:28:04;10.50;78.00
63017;DHT22;50274;45.640;11.756;2022-11-11T03:30:30;10.50;77.90
63017;DHT22;50274;45.640;11.756;2022-11-11T03:32:58;10.50;77.90
63017;DHT22;50274;45.640;11.756;2022-11-11T03:35:23;10.50;77.90
63017;DHT22;50274;45.640;11.756;2022-11-11T03:37:49;10.40;77.80
63017;DHT22;50274;45.640;11.756;2022-11-11T03:40:34;10.40;77.80
63017;DHT22;50274;45.640;11.756;2022-11-11T03:42:59;10.40;77.80
63017;DHT22;50274;45.640;11.756;2022-11-11T03:45:25;10.40;77.80
63017;DHT22;50274;45.640;11.756;2022-11-11T03:47:51;10.40;77.70
63017;DHT22;50274;45.640;11.756;2022-11-11T03:50:20;10.40;77.70
63017;DHT22;50274;45.640;11.756;2022-11-11T03:52:46;10.40;77.80
63017;DHT22;50274;45.640;11.756;2022-11-11T03:55:12;10.40;77.80
63017;DHT22;50274;45.640;11.756;2022-11-11T03:57:43;10.40;77.80
63017;DHT22;50274;45.640;11.756;2022-11-11T04:00:12;10.40;77.80
63017;DHT22;50274;45.640;11.756;2022-11-11T04:02:39;10.40;77.70
63017;DHT22;50274;45.640;11.756;2022-11-11T04:05:23;10.40;77.70
63017;DHT22;50274;45.640;11.756;2022-11-11T04:08:12;10.40;77.70
63017;DHT22;50274;45.640;11.756;2022-11-11T04:10:57;10.30;77.70
63017;DHT22;50274;45.640;11.756;2022-11-11T04:13:26;10.30;77.70
63017;DHT22;50274;45.640;11.756;2022-11-11T04:16:10;10.30;77.70
63017;DHT22;50274;45.640;11.756;2022-11-11T04:18:37;10.30;77.70
63017;DHT22;50274;45.640;11.756;2022-11-11T04:21:22;10.20;77.70
63017;DHT22;50274;45.640;11.756;2022-11-11T04:24:14;10.20;77.60
63017;DHT22;50274;45.640;11.756;2022-11-11T04:27:00;10.20;77.60
63017;DHT22;50274;45.640;11.756;2022-11-11T04:29:26;10.20;77.60
63017;DHT22;50274;45.640;11.756;2022-11-11T04:34:54;10.20;77.50
63017;DHT22;50274;45.640;11.756;2022-11-11T04:37:21;10.10;77.40
63017;DHT22;50274;45.640;11.756;2022-11-11T04:39:47;10.10;77.40
63017;DHT22;50274;45.640;11.756;2022-11-11T04:42:32;10.10;77.40
63017;DHT22;50274;45.640;11.756;2022-11-11T04:44:59;10.10;77.50
63017;DHT22;50274;45.640;11.756;2022-11-11T04:50:33;10.00;77.50
63017;DHT22;50274;45.640;11.756;2022-11-11T04:53:00;10.00;77.60
63017;DHT22;50274;45.640;11.756;2022-11-11T04:55:27;10.00;77.60
63017;DHT22;50274;45.640;11.756;2022-11-11T04:58:11;10.00;77.60
63017;DHT22;50274;45.640;11.756;2022-11-11T05:00:37;10.00;77.60
63017;DHT22;50274;45.640;11.756;2022-11-11T05:03:03;10.00;77.50
63017;DHT22;50274;45.640;11.756;2022-11-11T05:08:35;9.90;77.50
63017;DHT22;50274;45.640;11.756;2022-11-11T05:11:22;9.90;77.50
63017;DHT22;50274;45.640;11.756;2022-11-11T05:13:49;9.90;77.60
63017;DHT22;50274;45.640;11.756;2022-11-11T05:16:46;9.80;77.60
63017;DHT22;50274;45.640;11.756;2022-11-11T05:19:31;9.80;77.60
63017;DHT22;50274;45.640;11.756;2022-11-11T05:22:29;9.80;77.60
63017;DHT22;50274;45.640;11.756;2022-11-11T05:24:55;9.90;77.50
63017;DHT22;50274;45.640;11.756;2022-11-11T05:27:39;9.80;77.50
63017;DHT22;50274;45.640;11.756;2022-11-11T05:30:06;9.80;77.50
63017;DHT22;50274;45.640;11.756;2022-11-11T05:32:33;9.80;77.50
63017;DHT22;50274;45.640;11.756;2022-11-11T05:34:58;9.80;77.40
63017;DHT22;50274;45.640;11.756;2022-11-11T05:37:24;9.80;77.40
63017;DHT22;50274;45.640;11.756;2022-11-11T05:39:50;9.80;77.40
63017;DHT22;50274;45.640;11.756;2022-11-11T05:42:16;9.80;77.40
63017;DHT22;50274;45.640;11.756;2022-11-11T05:44:42;9.80;77.40
63017;DHT22;50274;45.640;11.756;2022-11-11T05:47:08;9.80;77.40
63017;DHT22;50274;45.640;11.756;2022-11-11T05:49:34;9.80;77.40
63017;DHT22;50274;45.640;11.756;2022-11-11T05:52:00;9.80;77.40
63017;DHT22;50274;45.640;11.756;2022-11-11T05:54:26;9.70;77.40
63017;DHT22;50274;45.640;11.756;2022-11-11T05:56:52;9.70;77.40
63017;DHT22;50274;45.640;11.756;2022-11-11T05:59:17;9.70;77.50
63017;DHT22;50274;45.640;11.756;2022-11-11T06:01:43;9.70;77.40
63017;DHT22;50274;45.640;11.756;2022-11-11T06:04:09;9.70;77.40
63017;DHT22;50274;45.640;11.756;2022-11-11T06:06:36;9.70;77.40
63017;DHT22;50274;45.640;11.756;2022-11-11T06:09:02;9.70;77.30
63017;DHT22;50274;45.640;11.756;2022-11-11T06:11:29;9.70;77.30
63017;DHT22;50274;45.640;11.756;2022-11-11T06:13:55;9.70;77.30
63017;DHT22;50274;45.640;11.756;2022-11-11T06:16:21;9.70;77.20
63017;DHT22;50274;45.640;11.756;2022-11-11T06:18:47;9.70;77.20
63017;DHT22;50274;45.640;11.756;2022-11-11T06:21:13;9.70;77.20
63017;DHT22;50274;45.640;11.756;2022-11-11T06:23:39;9.70;77.20
63017;DHT22;50274;45.640;11.756;2022-11-11T06:26:05;9.70;77.20
63017;DHT22;50274;45.640;11.756;2022-11-11T06:28:47;9.70;77.20
63017;DHT22;50274;45.640;11.756;2022-11-11T06:31:16;9.70;77.10
63017;DHT22;50274;45.640;11.756;2022-11-11T06:33:42;9.70;77.10
63017;DHT22;50274;45.640;11.756;2022-11-11T06:36:10;9.70;77.20
63017;DHT22;50274;45.640;11.756;2022-11-11T06:38:38;9.70;77.10
63017;DHT22;50274;45.640;11.756;2022-11-11T06:41:04;9.70;77.20
63017;DHT22;50274;45.640;11.756;2022-11-11T06:43:30;9.70;77.20
63017;DHT22;50274;45.640;11.756;2022-11-11T06:45:56;9.70;77.30
63017;DHT22;50274;45.640;11.756;2022-11-11T06:48:24;9.80;77.30
63017;DHT22;50274;45.640;11.756;2022-11-11T06:50:51;9.80;77.30
63017;DHT22;50274;45.640;11.756;2022-11-11T06:53:18;9.80;77.40
63017;DHT22;50274;45.640;11.756;2022-11-11T06:55:45;9.80;77.40
63017;DHT22;50274;45.640;11.756;2022-11-11T06:58:15;9.80;77.40
63017;DHT22;50274;45.640;11.756;2022-11-11T07:00:43;9.90;77.40
63017;DHT22;50274;45.640;11.756;2022-11-11T07:03:14;9.90;77.50
63017;DHT22;50274;45.640;11.756;2022-11-11T07:05:41;9.90;77.50
63017;DHT22;50274;45.640;11.756;2022-11-11T07:08:10;10.00;77.50
63017;DHT22;50274;45.640;11.756;2022-11-11T07:10:38;10.00;77.50
63017;DHT22;50274;45.640;11.756;2022-11-11T07:13:05;10.10;77.60
63017;DHT22;50274;45.640;11.756;2022-11-11T07:15:31;10.20;77.50
63017;DHT22;50274;45.640;11.756;2022-11-11T07:17:57;10.30;77.50
63017;DHT22;50274;45.640;11.756;2022-11-11T07:20:23;10.30;77.50
63017;DHT22;50274;45.640;11.756;2022-11-11T07:22:49;10.40;77.50
63017;DHT22;50274;45.640;11.756;2022-11-11T07:25:15;10.50;77.40
63017;DHT22;50274;45.640;11.756;2022-11-11T07:27:41;10.60;77.50
63017;DHT22;50274;45.640;11.756;2022-11-11T07:30:09;10.70;77.50
63017;DHT22;50274;45.640;11.756;2022-11-11T07:32:35;10.80;77.50
63017;DHT22;50274;45.640;11.756;2022-11-11T07:35:02;10.80;77.50
63017;DHT22;50274;45.640;11.756;2022-11-11T07:37:29;10.90;77.60
63017;DHT22;50274;45.640;11.756;2022-11-11T07:39:55;11.00;77.60
63017;DHT22;50274;45.640;11.756;2022-11-11T07:42:21;11.00;77.70
63017;DHT22;50274;45.640;11.756;2022-11-11T07:44:47;11.10;77.80
63017;DHT22;50274;45.640;11.756;2022-11-11T07:47:13;11.10;77.90
63017;DHT22;50274;45.640;11.756;2022-11-11T07:49:38;11.30;77.90
63017;DHT22;50274;45.640;11.756;2022-11-11T07:52:04;11.30;77.90
63017;DHT22;50274;45.640;11.756;2022-11-11T07:54:30;11.50;78.00
63017;DHT22;50274;45.640;11.756;2022-11-11T07:56:56;11.60;78.30
63017;DHT22;50274;45.640;11.756;2022-11-11T07:59:22;11.70;78.30
63017;DHT22;50274;45.640;11.756;2022-11-11T08:01:48;11.80;78.50
63017;DHT22;50274;45.640;11.756;2022-11-11T08:04:14;11.90;78.50
63017;DHT22;50274;45.640;11.756;2022-11-11T08:06:39;12.00;78.50
63017;DHT22;50274;45.640;11.756;2022-11-11T08:09:05;12.00;78.50
63017;DHT22;50274;45.640;11.756;2022-11-11T08:11:31;12.10;78.50
63017;DHT22;50274;45.640;11.756;2022-11-11T08:14:15;12.20;78.50
63017;DHT22;50274;45.640;11.756;2022-11-11T08:16:41;12.40;78.50
63017;DHT22;50274;45.640;11.756;2022-11-11T08:19:07;12.50;78.70
63017;DHT22;50274;45.640;11.756;2022-11-11T08:21:32;12.70;79.10
63017;DHT22;50274;45.640;11.756;2022-11-11T08:23:58;12.80;79.00
63017;DHT22;50274;45.640;11.756;2022-11-11T08:26:24;12.90;78.90
63017;DHT22;50274;45.640;11.756;2022-11-11T08:28:51;13.00;78.70
63017;DHT22;50274;45.640;11.756;2022-11-11T08:31:18;13.10;78.40
63017;DHT22;50274;45.640;11.756;2022-11-11T08:33:44;13.20;78.20
63017;DHT22;50274;45.640;11.756;2022-11-11T08:36:10;13.30;78.10
63017;DHT22;50274;45.640;11.756;2022-11-11T08:38:36;13.40;78.00
63017;DHT22;50274;45.640;11.756;2022-11-11T08:41:04;13.50;77.80
63017;DHT22;50274;45.640;11.756;2022-11-11T08:43:30;13.50;77.60
63017;DHT22;50274;45.640;11.756;2022-11-11T08:46:02;13.60;77.50
63017;DHT22;50274;45.640;11.756;2022-11-11T08:48:29;13.60;77.30
63017;DHT22;50274;45.640;11.756;2022-11-11T08:50:56;13.70;77.10
63017;DHT22;50274;45.640;11.756;2022-11-11T08:53:22;13.80;77.00
63017;DHT22;50274;45.640;11.756;2022-11-11T08:55:48;13.90;76.90
63017;DHT22;50274;45.640;11.756;2022-11-11T08:58:14;14.00;76.80
63017;DHT22;50274;45.640;11.756;2022-11-11T09:00:40;14.10;76.70
63017;DHT22;50274;45.640;11.756;2022-11-11T09:03:09;14.20;76.60
63017;DHT22;50274;45.640;11.756;2022-11-11T09:05:37;14.30;76.50
63017;DHT22;50274;45.640;11.756;2022-11-11T09:08:05;14.40;76.30
63017;DHT22;50274;45.640;11.756;2022-11-11T09:10:33;14.60;76.10
63017;DHT22;50274;45.640;11.756;2022-11-11T09:12:59;14.70;75.90
63017;DHT22;50274;45.640;11.756;2022-11-11T09:15:26;14.90;75.60
63017;DHT22;50274;45.640;11.756;2022-11-11T09:17:53;15.00;75.30
63017;DHT22;50274;45.640;11.756;2022-11-11T09:20:19;15.20;75.20
63017;DHT22;50274;45.640;11.756;2022-11-11T09:22:45;15.30;75.00
63017;DHT22;50274;45.640;11.756;2022-11-11T09:25:12;15.50;74.70
63017;DHT22;50274;45.640;11.756;2022-11-11T09:27:38;15.60;74.30
63017;DHT22;50274;45.640;11.756;2022-11-11T09:30:05;15.70;73.20
63017;DHT22;50274;45.640;11.756;2022-11-11T09:32:32;15.80;71.80
63017;DHT22;50274;45.640;11.756;2022-11-11T09:34:58;15.90;71.40
63017;DHT22;50274;45.640;11.756;2022-11-11T09:37:24;15.90;71.20
63017;DHT22;50274;45.640;11.756;2022-11-11T09:39:50;16.00;71.10
63017;DHT22;50274;45.640;11.756;2022-11-11T09:42:39;16.10;70.90
63017;DHT22;50274;45.640;11.756;2022-11-11T09:50:30;16.60;69.60
63017;DHT22;50274;45.640;11.756;2022-11-11T09:55:43;16.70;68.80
63017;DHT22;50274;45.640;11.756;2022-11-11T09:58:16;16.70;68.50
63017;DHT22;50274;45.640;11.756;2022-11-11T10:00:45;16.70;68.40
63017;DHT22;50274;45.640;11.756;2022-11-11T10:03:17;16.70;68.60
63017;DHT22;50274;45.640;11.756;2022-11-11T10:05:54;16.80;68.60
63017;DHT22;50274;45.640;11.756;2022-11-11T10:08:25;16.90;68.60
63017;DHT22;50274;45.640;11.756;2022-11-11T10:10:54;17.00;68.50
63017;DHT22;50274;45.640;11.756;2022-11-11T10:21:35;17.50;66.50
63017;DHT22;50274;45.640;11.756;2022-11-11T10:24:10;17.70;66.00
63017;DHT22;50274;45.640;11.756;2022-11-11T10:26:41;17.90;65.80
63017;DHT22;50274;45.640;11.756;2022-11-11T10:29:29;18.10;65.40
63017;DHT22;50274;45.640;11.756;2022-11-11T10:32:02;18.30;64.50
63017;DHT22;50274;45.640;11.756;2022-11-11T10:34:36;18.40;63.10
63017;DHT22;50274;45.640;11.756;2022-11-11T10:37:08;18.50;62.10
63017;DHT22;50274;45.640;11.756;2022-11-11T10:42:19;18.40;61.40
63017;DHT22;50274;45.640;11.756;2022-11-11T10:44:45;18.40;62.40
63017;DHT22;50274;45.640;11.756;2022-11-11T10:47:53;18.40;61.90
63017;DHT22;50274;45.640;11.756;2022-11-11T10:50:37;18.50;61.60
63017;DHT22;50274;45.640;11.756;2022-11-11T10:56:02;18.70;61.50
63017;DHT22;50274;45.640;11.756;2022-11-11T10:58:36;18.90;61.60
63017;DHT22;50274;45.640;11.756;2022-11-11T11:01:08;19.00;61.00
63017;DHT22;50274;45.640;11.756;2022-11-11T11:03:51;19.00;60.00
63017;DHT22;50274;45.640;11.756;2022-11-11T11:06:27;19.10;60.40
63017;DHT22;50274;45.640;11.756;2022-11-11T11:09:13;19.10;60.60
63017;DHT22;50274;45.640;11.756;2022-11-11T11:12:06;19.00;60.60
63017;DHT22;50274;45.640;11.756;2022-11-11T11:14:38;18.90;60.90
63017;DHT22;50274;45.640;11.756;2022-11-11T11:17:21;18.90;60.20
63017;DHT22;50274;45.640;11.756;2022-11-11T11:20:11;18.70;60.70
63017;DHT22;50274;45.640;11.756;2022-11-11T11:22:54;18.60;61.10
63017;DHT22;50274;45.640;11.756;2022-11-11T11:25:28;18.60;61.20
63017;DHT22;50274;45.640;11.756;2022-11-11T11:28:13;18.60;61.50
63017;DHT22;50274;45.640;11.756;2022-11-11T11:30:53;18.50;61.50
63017;DHT22;50274;45.640;11.756;2022-11-11T11:33:25;18.60;61.60
63017;DHT22;50274;45.640;11.756;2022-11-11T11:36:15;18.60;61.60
63017;DHT22;50274;45.640;11.756;2022-11-11T11:38:44;18.60;61.60
63017;DHT22;50274;45.640;11.756;2022-11-11T11:41:16;18.60;61.30
63017;DHT22;50274;45.640;11.756;2022-11-11T11:43:45;18.70;61.40
63017;DHT22;50274;45.640;11.756;2022-11-11T11:46:36;18.80;61.00
63017;DHT22;50274;45.640;11.756;2022-11-11T11:49:25;18.90;60.90
63017;DHT22;50274;45.640;11.756;2022-11-11T11:54:59;19.20;60.50
63017;DHT22;50274;45.640;11.756;2022-11-11T12:00:28;19.60;59.20
63017;DHT22;50274;45.640;11.756;2022-11-11T12:05:48;19.90;58.60
63017;DHT22;50274;45.640;11.756;2022-11-11T12:08:21;20.00;58.30
63017;DHT22;50274;45.640;11.756;2022-11-11T12:11:17;20.10;57.90
63017;DHT22;50274;45.640;11.756;2022-11-11T12:16:45;20.30;57.60
63017;DHT22;50274;45.640;11.756;2022-11-11T12:27:33;20.70;55.60
63017;DHT22;50274;45.640;11.756;2022-11-11T12:30:16;20.70;54.90
63017;DHT22;50274;45.640;11.756;2022-11-11T12:35:33;20.60;54.60
63017;DHT22;50274;45.640;11.756;2022-11-11T12:38:25;20.50;54.90
63017;DHT22;50274;45.640;11.756;2022-11-11T12:44:13;20.40;55.40
63017;DHT22;50274;45.640;11.756;2022-11-11T12:47:04;20.40;55.40
63017;DHT22;50274;45.640;11.756;2022-11-11T12:55:38;20.50;54.80
63017;DHT22;50274;45.640;11.756;2022-11-11T12:58:30;20.50;54.50
63017;DHT22;50274;45.640;11.756;2022-11-11T13:04:02;20.60;54.80
63017;DHT22;50274;45.640;11.756;2022-11-11T13:06:46;20.60;54.90
63017;DHT22;50274;45.640;11.756;2022-11-11T13:15:11;20.60;54.70
63017;DHT22;50274;45.640;11.756;2022-11-11T13:17:38;20.50;54.90
63017;DHT22;50274;45.640;11.756;2022-11-11T13:22:38;20.50;55.20
63017;DHT22;50274;45.640;11.756;2022-11-11T13:25:05;20.40;55.40
63017;DHT22;50274;45.640;11.756;2022-11-11T13:27:42;20.40;55.60
63017;DHT22;50274;45.640;11.756;2022-11-11T13:33:16;20.20;56.00
63017;DHT22;50274;45.640;11.756;2022-11-11T13:35:47;20.10;56.00
63017;DHT22;50274;45.640;11.756;2022-11-11T13:38:33;20.10;55.80
63017;DHT22;50274;45.640;11.756;2022-11-11T13:41:05;19.90;56.10
63017;DHT22;50274;45.640;11.756;2022-11-11T13:43:40;19.80;56.60
63017;DHT22;50274;45.640;11.756;2022-11-11T13:46:57;19.70;56.80
63017;DHT22;50274;45.640;11.756;2022-11-11T13:48:58;19.60;56.90
63017;DHT22;50274;45.640;11.756;2022-11-11T13:51:43;19.60;56.90
63017;DHT22;50274;45.640;11.756;2022-11-11T13:57:19;19.50;56.90
63017;DHT22;50274;45.640;11.756;2022-11-11T14:00:22;19.30;57.10
63017;DHT22;50274;45.640;11.756;2022-11-11T14:05:46;19.20;58.00
63017;DHT22;50274;45.640;11.756;2022-11-11T14:13:52;19.00;58.60
63017;DHT22;50274;45.640;11.756;2022-11-11T14:22:00;18.70;59.50
63017;DHT22;50274;45.640;11.756;2022-11-11T14:24:40;18.70;59.50
63017;DHT22;50274;45.640;11.756;2022-11-11T14:29:48;18.50;59.90
63017;DHT22;50274;45.640;11.756;2022-11-11T14:35:39;18.30;60.30
63017;DHT22;50274;45.640;11.756;2022-11-11T14:49:47;18.00;61.10
63017;DHT22;50274;45.640;11.756;2022-11-11T14:55:15;17.90;61.60
63017;DHT22;50274;45.640;11.756;2022-11-11T15:00:20;17.80;62.20
63017;DHT22;50274;45.640;11.756;2022-11-11T15:06:01;17.70;62.80
63017;DHT22;50274;45.640;11.756;2022-11-11T15:19:33;17.30;64.30
63017;DHT22;50274;45.640;11.756;2022-11-11T15:27:49;17.00;65.10
63017;DHT22;50274;45.640;11.756;2022-11-11T15:30:21;17.00;65.40
63017;DHT22;50274;45.640;11.756;2022-11-11T15:35:50;16.80;65.80
63017;DHT22;50274;45.640;11.756;2022-11-11T15:38:18;16.80;65.90
63017;DHT22;50274;45.640;11.756;2022-11-11T15:40:50;16.70;66.10
63017;DHT22;50274;45.640;11.756;2022-11-11T15:43:21;16.70;66.30
63017;DHT22;50274;45.640;11.756;2022-11-11T15:45:52;16.60;66.50
63017;DHT22;50274;45.640;11.756;2022-11-11T15:48:23;16.50;66.70
63017;DHT22;50274;45.640;11.756;2022-11-11T15:50:50;16.50;66.90
63017;DHT22;50274;45.640;11.756;2022-11-11T15:53:25;16.40;67.10
63017;DHT22;50274;45.640;11.756;2022-11-11T15:55:56;16.30;67.30
63017;DHT22;50274;45.640;11.756;2022-11-11T15:58:28;16.20;67.40
63017;DHT22;50274;45.640;11.756;2022-11-11T16:00:54;16.20;67.60
63017;DHT22;50274;45.640;11.756;2022-11-11T16:03:31;16.10;67.70
63017;DHT22;50274;45.640;11.756;2022-11-11T16:05:59;16.00;67.90
63017;DHT22;50274;45.640;11.756;2022-11-11T16:08:26;15.90;68.10
63017;DHT22;50274;45.640;11.756;2022-11-11T16:10:56;15.80;68.40
63017;DHT22;50274;45.640;11.756;2022-11-11T16:14:09;15.80;68.50
63017;DHT22;50274;45.640;11.756;2022-11-11T16:16:21;15.70;68.70
63017;DHT22;50274;45.640;11.756;2022-11-11T16:18:53;15.60;68.80
63017;DHT22;50274;45.640;11.756;2022-11-11T16:21:32;15.50;68.90
63017;DHT22;50274;45.640;11.756;2022-11-11T16:24:00;15.50;69.10
63017;DHT22;50274;45.640;11.756;2022-11-11T16:26:27;15.40;69.20
63017;DHT22;50274;45.640;11.756;2022-11-11T16:28:57;15.40;69.30
63017;DHT22;50274;45.640;11.756;2022-11-11T16:31:50;15.30;69.40
63017;DHT22;50274;45.640;11.756;2022-11-11T16:37:07;15.20;69.80
63017;DHT22;50274;45.640;11.756;2022-11-11T16:39:33;15.10;69.90
63017;DHT22;50274;45.640;11.756;2022-11-11T16:42:04;15.10;70.00
63017;DHT22;50274;45.640;11.756;2022-11-11T16:44:46;15.00;70.10
63017;DHT22;50274;45.640;11.756;2022-11-11T16:55:14;14.80;70.70
63017;DHT22;50274;45.640;11.756;2022-11-11T16:57:41;14.70;70.80
63017;DHT22;50274;45.640;11.756;2022-11-11T17:00:13;14.70;70.90
63017;DHT22;50274;45.640;11.756;2022-11-11T17:02:40;14.70;71.00
63017;DHT22;50274;45.640;11.756;2022-11-11T17:05:06;14.60;71.20
63017;DHT22;50274;45.640;11.756;2022-11-11T17:07:37;14.60;71.30
63017;DHT22;50274;45.640;11.756;2022-11-11T17:12:33;14.60;71.30
63017;DHT22;50274;45.640;11.756;2022-11-11T17:14:59;14.50;71.30
63017;DHT22;50274;45.640;11.756;2022-11-11T17:17:25;14.50;71.40
63017;DHT22;50274;45.640;11.756;2022-11-11T17:19:55;14.50;71.40
63017;DHT22;50274;45.640;11.756;2022-11-11T17:22:22;14.40;71.50
63017;DHT22;50274;45.640;11.756;2022-11-11T17:24:48;14.40;71.60
63017;DHT22;50274;45.640;11.756;2022-11-11T17:27:14;14.30;71.70
63017;DHT22;50274;45.640;11.756;2022-11-11T17:29:39;14.30;71.80
63017;DHT22;50274;45.640;11.756;2022-11-11T17:32:06;14.30;71.90
63017;DHT22;50274;45.640;11.756;2022-11-11T17:34:31;14.20;72.10
63017;DHT22;50274;45.640;11.756;2022-11-11T17:36:57;14.20;72.10
63017;DHT22;50274;45.640;11.756;2022-11-11T17:39:23;14.20;72.20
63017;DHT22;50274;45.640;11.756;2022-11-11T17:41:49;14.10;72.20
63017;DHT22;50274;45.640;11.756;2022-11-11T17:44:15;14.10;72.20
63017;DHT22;50274;45.640;11.756;2022-11-11T17:46:41;14.20;72.20
63017;DHT22;50274;45.640;11.756;2022-11-11T17:49:08;14.20;72.20
63017;DHT22;50274;45.640;11.756;2022-11-11T17:51:34;14.10;72.20
63017;DHT22;50274;45.640;11.756;2022-11-11T17:53:59;14.10;72.20
63017;DHT22;50274;45.640;11.756;2022-11-11T17:56:25;14.10;72.20
63017;DHT22;50274;45.640;11.756;2022-11-11T17:58:52;14.10;72.30
63017;DHT22;50274;45.640;11.756;2022-11-11T18:01:18;14.00;72.20
63017;DHT22;50274;45.640;11.756;2022-11-11T18:03:44;14.00;72.30
63017;DHT22;50274;45.640;11.756;2022-11-11T18:06:10;14.00;72.30
63017;DHT22;50274;45.640;11.756;2022-11-11T18:08:36;13.90;72.40
63017;DHT22;50274;45.640;11.756;2022-11-11T18:11:04;13.80;72.40
63017;DHT22;50274;45.640;11.756;2022-11-11T18:13:31;13.80;72.50
63017;DHT22;50274;45.640;11.756;2022-11-11T18:15:57;13.80;72.50
63017;DHT22;50274;45.640;11.756;2022-11-11T18:18:25;13.80;72.60
63017;DHT22;50274;45.640;11.756;2022-11-11T18:20:52;13.70;72.70